Time;durP1;ratioP1;P1;durP2;ratioP2;P2;SDS_P1;SDS_P2;PMS_P1;PMS_P2;Temp;Humidity;BMP_temperature;BMP_pressure;BME280_temperature;BME280_humidity;BME280_pressure;Samples;Min_cycle;Max_cycle;Signal;HPM_P1;HPM_P2
2022/12/10 00:01:47;;;;;;;72.72;22.25;;;;;;;-4.04;100.00;100701.00;5056595;28;20074;-87
2022/12/10 00:04:16;;;;;;;74.88;22.38;;;;;;;-4.02;100.00;100698.25;5055753;28;20131;-86
2022/12/10 00:06:45;;;;;;;78.27;22.83;;;;;;;-4.02;100.00;100701.72;5055610;28;20427;-87
2022/12/10 00:09:24;;;;;;;73.13;22.98;;;;;;;-3.98;100.00;100712.94;5055325;28;20488;-87
2022/12/10 00:11:57;;;;;;;67.63;21.55;;;;;;;-4.00;100.00;100707.75;5040138;28;20071;-87
2022/12/10 00:14:28;;;;;;;71.25;22.15;;;;;;;-4.00;100.00;100714.84;5039840;28;20037;-86
2022/12/10 00:16:54;;;;;;;75.18;22.60;;;;;;;-4.01;100.00;100710.53;5054980;28;20032;-87
2022/12/10 00:19:27;;;;;;;76.97;23.33;;;;;;;-4.03;100.00;100704.50;5055629;28;20097;-87
2022/12/10 00:21:52;;;;;;;68.05;22.40;;;;;;;-4.03;100.00;100712.44;5056035;28;20021;-86
2022/12/10 00:24:18;;;;;;;72.03;21.83;;;;;;;-4.02;100.00;100720.28;5073195;28;20551;-86
2022/12/10 00:26:46;;;;;;;77.70;23.63;;;;;;;-4.02;100.00;100719.44;5038730;28;20446;-86
2022/12/10 00:29:13;;;;;;;76.53;22.52;;;;;;;-4.01;100.00;100724.63;5055703;28;20749;-86
2022/12/10 00:31:39;;;;;;;78.88;23.40;;;;;;;-4.01;100.00;100721.13;5073445;28;20040;-87
2022/12/10 00:34:09;;;;;;;75.82;24.23;;;;;;;-3.99;100.00;100730.63;5038565;28;20518;-87
2022/12/10 00:36:42;;;;;;;74.95;23.67;;;;;;;-3.96;100.00;100722.41;5055453;28;20041;-86
2022/12/10 00:39:11;;;;;;;73.23;23.83;;;;;;;-3.99;100.00;100724.50;5055407;28;20031;-89
2022/12/10 00:41:40;;;;;;;72.28;22.88;;;;;;;-4.01;100.00;100715.84;5054396;28;20072;-86
2022/12/10 00:44:05;;;;;;;76.40;24.17;;;;;;;-4.02;100.00;100722.91;5038869;28;20052;-86
2022/12/10 00:46:31;;;;;;;78.93;24.30;;;;;;;-4.05;100.00;100721.34;5073315;28;20041;-87
2022/12/10 00:49:01;;;;;;;74.45;22.77;;;;;;;-4.07;100.00;100722.47;5055591;28;20040;-87
2022/12/10 00:51:33;;;;;;;78.57;22.43;;;;;;;-4.09;100.00;100708.47;5055861;28;20086;-87
2022/12/10 00:53:59;;;;;;;75.38;23.67;;;;;;;-4.08;100.00;100713.66;5056125;28;20274;-86
2022/12/10 00:56:33;;;;;;;67.28;22.05;;;;;;;-4.08;100.00;100711.00;5055274;28;20024;-87
2022/12/10 00:58:59;;;;;;;80.03;23.27;;;;;;;-4.12;100.00;100708.72;5055549;28;20052;-86
2022/12/10 01:01:36;;;;;;;83.30;23.48;;;;;;;-4.08;100.00;100713.66;5072869;28;20032;-87
2022/12/10 01:04:11;;;;;;;79.10;22.60;;;;;;;-4.11;100.00;100703.31;5054925;28;20029;-86
2022/12/10 01:06:45;;;;;;;75.95;22.95;;;;;;;-4.11;100.00;100702.47;5054650;28;20279;-86
2022/12/10 01:09:13;;;;;;;78.63;23.45;;;;;;;-4.15;100.00;100688.66;5055301;28;20039;-88
2022/12/10 01:11:42;;;;;;;70.28;22.45;;;;;;;-4.17;100.00;100701.16;5055024;28;20384;-86
2022/12/10 01:14:13;;;;;;;76.05;22.23;;;;;;;-4.17;100.00;100705.63;5072928;28;20032;-86
2022/12/10 01:16:41;;;;;;;70.13;22.50;;;;;;;-4.17;100.00;100711.75;5072943;28;20417;-87
2022/12/10 01:19:10;;;;;;;67.95;21.80;;;;;;;-4.18;100.00;100715.34;5021988;28;20353;-86
2022/12/10 01:21:36;;;;;;;75.10;24.45;;;;;;;-4.26;100.00;100701.91;5036287;28;20048;-86
2022/12/10 01:24:02;;;;;;;78.53;24.25;;;;;;;-4.21;100.00;100714.78;5055072;28;20098;-86
2022/12/10 01:26:33;;;;;;;77.63;24.00;;;;;;;-4.26;100.00;100709.84;5055203;28;20094;-86
2022/12/10 01:29:00;;;;;;;85.53;24.20;;;;;;;-4.22;100.00;100711.28;5072644;28;20040;-86
2022/12/10 01:31:36;;;;;;;75.03;22.30;;;;;;;-4.12;100.00;100727.28;5058426;28;20025;-86
2022/12/10 01:34:03;;;;;;;75.07;22.90;;;;;;;-4.09;100.00;100719.06;5058462;28;20025;-86
2022/12/10 01:36:41;;;;;;;86.63;24.50;;;;;;;-4.02;100.00;100735.34;5041298;28;20047;-86
2022/12/10 01:39:09;;;;;;;88.03;23.45;;;;;;;-3.98;100.00;100740.28;5058616;28;20032;-87
2022/12/10 01:41:53;;;;;;;83.45;25.27;;;;;;;-3.93;100.00;100743.38;5058015;28;20113;-87
2022/12/10 01:44:18;;;;;;;84.45;24.10;;;;;;;-3.88;100.00;100740.38;5058490;28;20456;-87
2022/12/10 01:46:48;;;;;;;97.40;26.50;;;;;;;-3.88;100.00;100743.03;5058195;28;20183;-87
2022/12/10 01:49:31;;;;;;;104.95;23.80;;;;;;;-3.86;100.00;100742.91;5058490;28;20017;-87
2022/12/10 01:52:02;;;;;;;188.27;25.70;;;;;;;-3.84;100.00;100748.91;5057835;28;20033;-87
2022/12/10 01:54:36;;;;;;;114.50;24.30;;;;;;;-3.85;100.00;100742.78;5076313;28;20525;-87
2022/12/10 01:57:08;;;;;;;182.55;22.13;;;;;;;-3.84;100.00;100739.13;5058890;28;20036;-86
2022/12/10 01:59:41;;;;;;;121.38;23.27;;;;;;;-3.90;100.00;100737.00;5058152;28;20499;-86
2022/12/10 02:02:42;;;;;;;99.85;23.30;;;;;;;-3.89;100.00;100744.81;5057477;28;20472;-86
2022/12/10 02:05:20;;;;;;;87.32;22.55;;;;;;;-3.86;100.00;100746.38;5057662;28;20127;-86
2022/12/10 02:07:54;;;;;;;99.43;26.27;;;;;;;-3.85;100.00;100742.78;5058648;28;20041;-87
2022/12/10 02:10:37;;;;;;;85.90;24.65;;;;;;;-3.82;100.00;100741.66;5057432;28;20029;-87
2022/12/10 02:13:23;;;;;;;88.20;23.70;;;;;;;-3.88;100.00;100743.88;5075913;28;20033;-87
2022/12/10 02:16:05;;;;;;;82.55;22.85;;;;;;;-3.83;100.00;100735.53;5075689;28;20135;-87
2022/12/10 02:18:37;;;;;;;123.72;23.40;;;;;;;-3.76;100.00;100733.25;5057839;28;20033;-87
2022/12/10 02:21:23;;;;;;;112.23;22.97;;;;;;;-3.72;100.00;100738.16;5056701;28;20132;-87
2022/12/10 02:24:03;;;;;;;104.45;25.67;;;;;;;-3.73;100.00;100738.28;5056246;28;20040;-87
2022/12/10 02:27:00;;;;;;;91.28;25.85;;;;;;;-3.65;100.00;100737.66;5042166;28;20032;-86
2022/12/10 02:29:29;;;;;;;95.38;25.15;;;;;;;-3.62;100.00;100735.56;5075102;28;20024;-87
2022/12/10 02:32:16;;;;;;;112.32;27.08;;;;;;;-3.55;100.00;100733.28;5058206;28;20035;-87
2022/12/10 02:34:50;;;;;;;98.30;25.07;;;;;;;-3.52;100.00;100735.69;5057804;28;20041;-86
2022/12/10 02:37:36;;;;;;;92.30;24.90;;;;;;;-3.43;100.00;100745.50;5057519;28;20472;-87
2022/12/10 02:40:06;;;;;;;87.25;25.50;;;;;;;-3.50;100.00;100731.06;5074927;28;20028;-87
2022/12/10 02:42:37;;;;;;;99.03;26.23;;;;;;;-3.44;100.00;100727.94;5056898;28;20381;-87
2022/12/10 02:45:07;;;;;;;92.80;26.17;;;;;;;-3.40;100.00;100728.50;5074710;28;20025;-87
2022/12/10 02:47:34;;;;;;;89.47;25.27;;;;;;;-3.30;100.00;100733.91;5057183;28;20042;-86
2022/12/10 02:50:02;;;;;;;88.97;24.67;;;;;;;-3.30;100.00;100729.44;5056964;28;20040;-86
2022/12/10 02:52:33;;;;;;;119.15;25.80;;;;;;;-3.28;100.00;100718.69;5056847;28;20060;-86
2022/12/10 02:54:58;;;;;;;91.20;25.48;;;;;;;-3.21;100.00;100720.69;5075079;28;20055;-86
2022/12/10 02:57:41;;;;;;;106.00;26.00;;;;;;;-3.17;100.00;100724.78;5056785;28;20095;-86
2022/12/10 03:00:18;;;;;;;98.20;24.23;;;;;;;-3.21;100.00;100726.00;5056501;28;20115;-87
2022/12/10 03:03:13;;;;;;;88.30;24.23;;;;;;;-3.15;100.00;100734.44;5056676;28;20487;-87
2022/12/10 03:05:48;;;;;;;97.73;22.37;;;;;;;-3.10;100.00;100749.00;5056253;28;20411;-86
2022/12/10 03:08:34;;;;;;;100.93;24.02;;;;;;;-3.11;100.00;100734.03;5074649;28;20024;-86
2022/12/10 03:11:15;;;;;;;102.40;24.83;;;;;;;-3.13;100.00;100736.00;5056787;28;20483;-87
2022/12/10 03:14:02;;;;;;;88.55;22.30;;;;;;;-3.08;100.00;100744.38;5056215;28;20044;-87
2022/12/10 03:16:39;;;;;;;87.25;24.73;;;;;;;-3.13;100.00;100733.34;5056535;28;20068;-87
2022/12/10 03:19:11;;;;;;;89.63;25.17;;;;;;;-3.10;100.00;100735.72;5056433;28;20373;-87
2022/12/10 03:21:41;;;;;;;86.53;24.75;;;;;;;-3.04;100.00;100734.34;5057122;28;20119;-86
2022/12/10 03:24:11;;;;;;;97.40;23.33;;;;;;;-3.05;100.00;100732.69;5056646;28;20077;-87
2022/12/10 03:26:41;;;;;;;88.90;22.80;;;;;;;-3.05;100.00;100722.06;5056288;28;20448;-86
2022/12/10 03:29:14;;;;;;;85.68;24.27;;;;;;;-3.03;100.00;100728.94;5055921;28;20020;-87
2022/12/10 03:31:43;;;;;;;80.20;24.53;;;;;;;-3.01;100.00;100732.28;5056583;28;20572;-87
2022/12/10 03:34:10;;;;;;;93.93;23.77;;;;;;;-2.96;100.00;100739.84;5056063;28;20047;-86
2022/12/10 03:36:39;;;;;;;94.18;23.63;;;;;;;-3.00;100.00;100727.81;5056331;28;20475;-86
2022/12/10 03:39:12;;;;;;;82.57;22.83;;;;;;;-3.00;100.00;100736.63;5039156;28;20127;-86
2022/12/10 03:41:45;;;;;;;160.35;22.08;;;;;;;-3.00;100.00;100739.28;5055525;28;20047;-87
2022/12/10 03:44:13;;;;;;;101.03;24.13;;;;;;;-3.08;100.00;100740.91;5055068;28;20385;-86
2022/12/10 03:46:48;;;;;;;91.82;23.35;;;;;;;-3.06;100.00;100746.91;5056112;28;20025;-86
2022/12/10 03:49:24;;;;;;;90.18;24.15;;;;;;;-3.07;100.00;100746.09;5073549;28;20059;-86
2022/12/10 03:51:52;;;;;;;101.20;26.25;;;;;;;-3.06;100.00;100749.56;5055305;28;20029;-86
2022/12/10 03:54:20;;;;;;;149.73;22.70;;;;;;;-3.04;100.00;100745.81;5073517;28;20037;-87
2022/12/10 03:56:48;;;;;;;122.77;23.93;;;;;;;-3.06;100.00;100749.56;5056114;28;20078;-86
2022/12/10 03:59:16;;;;;;;89.07;23.17;;;;;;;-3.09;100.00;100755.13;5055581;28;20032;-86
2022/12/10 04:01:49;;;;;;;131.52;24.80;;;;;;;-3.10;100.00;100750.78;5039068;28;20038;-87
2022/12/10 04:04:14;;;;;;;116.38;23.23;;;;;;;-3.08;100.00;100746.22;5073830;28;20033;-87
2022/12/10 04:06:47;;;;;;;88.33;23.30;;;;;;;-3.09;100.00;100760.44;5073721;28;20119;-86
2022/12/10 04:09:21;;;;;;;91.25;23.38;;;;;;;-3.08;100.00;100757.66;5055627;28;20039;-86
2022/12/10 04:11:54;;;;;;;113.00;21.95;;;;;;;-3.08;100.00;100749.69;5055129;28;20408;-87
2022/12/10 04:17:15;;;;;;;121.88;24.50;;;;;;;-3.07;100.00;100745.22;5073934;28;20043;-87
2022/12/10 04:19:42;;;;;;;101.50;24.50;;;;;;;-3.02;100.00;100751.00;5039807;28;20102;-87
2022/12/10 04:27:39;;;;;;;89.78;23.23;;;;;;;-3.00;100.00;100752.56;5058942;28;20070;-86
2022/12/10 04:30:10;;;;;;;96.35;23.63;;;;;;;-2.95;100.00;100740.69;5055472;28;20067;-87
2022/12/10 04:32:36;;;;;;;104.93;25.13;;;;;;;-2.95;100.00;100746.88;5039227;28;20130;-87
2022/12/10 04:35:01;;;;;;;97.43;24.33;;;;;;;-2.95;100.00;100752.16;5055343;28;20028;-87
2022/12/10 04:37:32;;;;;;;99.53;24.40;;;;;;;-2.93;100.00;100752.03;5038735;28;20048;-86
2022/12/10 04:40:00;;;;;;;92.97;24.10;;;;;;;-2.88;100.00;100760.44;5038960;28;20038;-87
2022/12/10 04:42:27;;;;;;;103.63;22.75;;;;;;;-2.93;100.00;100760.84;5037853;28;20454;-87
2022/12/10 04:45:03;;;;;;;116.97;25.55;;;;;;;-2.92;100.00;100765.19;5054939;28;20040;-87
2022/12/10 04:47:31;;;;;;;103.28;25.35;;;;;;;-2.98;100.00;100763.06;5055538;28;20040;-86
2022/12/10 04:49:59;;;;;;;95.17;22.63;;;;;;;-2.98;100.00;100764.84;5038652;28;20033;-86
2022/12/10 04:52:29;;;;;;;106.57;26.13;;;;;;;-2.98;100.00;100767.50;5055229;28;20036;-86
2022/12/10 04:54:55;;;;;;;148.98;26.67;;;;;;;-2.95;100.00;100768.09;5055450;28;20078;-86
2022/12/10 04:57:25;;;;;;;121.93;28.30;;;;;;;-3.00;100.00;100768.50;5055591;28;20388;-86
2022/12/10 04:59:53;;;;;;;151.98;23.50;;;;;;;-3.01;100.00;100774.75;5055128;28;20032;-87
2022/12/10 05:02:24;;;;;;;101.72;24.92;;;;;;;-3.00;100.00;100771.16;5054669;28;20037;-87
2022/12/10 05:04:50;;;;;;;95.15;24.83;;;;;;;-2.96;100.00;100773.53;5041839;28;20464;-87
2022/12/10 05:07:16;;;;;;;91.30;23.10;;;;;;;-2.96;100.00;100774.38;5058984;28;20115;-87
2022/12/10 05:09:44;;;;;;;82.88;21.42;;;;;;;-2.96;100.00;100777.03;5059316;28;20028;-87
2022/12/10 05:12:13;;;;;;;105.63;24.10;;;;;;;-2.94;100.00;100777.72;5058914;28;20491;-87
2022/12/10 05:14:54;;;;;;;91.15;23.98;;;;;;;-2.97;100.00;100769.19;5058755;28;20278;-87
2022/12/10 05:17:21;;;;;;;89.50;24.45;;;;;;;-2.92;100.00;100766.97;5059050;28;20041;-86
2022/12/10 05:19:52;;;;;;;105.53;24.50;;;;;;;-2.93;100.00;100766.16;5076247;28;20075;-87
2022/12/10 05:25:11;;;;;;;95.37;23.40;;;;;;;-2.88;100.00;100773.72;5077137;28;20043;-87
2022/12/10 05:27:37;;;;;;;94.28;22.35;;;;;;;-2.93;100.00;100776.75;5057761;28;20275;-86
2022/12/10 05:30:07;;;;;;;84.75;22.35;;;;;;;-2.94;100.00;100767.09;5041639;28;20037;-87
2022/12/10 05:32:35;;;;;;;82.70;22.08;;;;;;;-2.93;100.00;100774.13;5058952;28;20032;-86
2022/12/10 05:35:01;;;;;;;98.93;22.92;;;;;;;-2.91;100.00;100779.28;5076164;28;20036;-87
2022/12/10 05:37:29;;;;;;;83.80;21.23;;;;;;;-2.90;100.00;100776.50;5076651;28;20496;-86
2022/12/10 05:39:57;;;;;;;87.28;22.95;;;;;;;-2.91;100.00;100773.97;5057948;28;20083;-86
2022/12/10 05:42:30;;;;;;;151.77;23.65;;;;;;;-2.95;100.00;100773.41;5042042;28;20544;-86
2022/12/10 05:45:02;;;;;;;99.60;22.98;;;;;;;-2.99;100.00;100769.31;5041732;28;20107;-87
2022/12/10 05:47:28;;;;;;;134.48;23.10;;;;;;;-2.98;100.00;100770.16;5042282;28;20028;-88
2022/12/10 05:49:56;;;;;;;96.70;20.87;;;;;;;-3.03;100.00;100760.78;5057834;28;20035;-86
2022/12/10 05:52:21;;;;;;;94.32;22.45;;;;;;;-3.07;100.00;100769.13;5058072;28;20115;-87
2022/12/10 05:54:47;;;;;;;114.17;21.67;;;;;;;-3.07;100.00;100769.97;5076073;28;20056;-87
2022/12/10 05:57:13;;;;;;;103.07;20.43;;;;;;;-3.09;100.00;100771.91;5058051;28;20029;-87
2022/12/10 05:59:38;;;;;;;98.93;22.08;;;;;;;-3.05;100.00;100773.31;5058584;28;20028;-87
2022/12/10 06:02:11;;;;;;;95.93;23.27;;;;;;;-3.00;100.00;100779.13;5057482;28;20032;-87
2022/12/10 06:04:38;;;;;;;102.95;22.67;;;;;;;-2.99;100.00;100777.28;5058752;28;20405;-87
2022/12/10 06:07:04;;;;;;;110.53;24.58;;;;;;;-3.02;100.00;100774.91;5075450;28;20032;-86
2022/12/10 06:09:32;;;;;;;93.47;22.07;;;;;;;-3.00;100.00;100781.78;5057390;28;20170;-87
2022/12/10 06:11:58;;;;;;;98.78;22.67;;;;;;;-2.99;100.00;100787.91;5058177;28;20376;-87
2022/12/10 06:14:23;;;;;;;111.40;22.70;;;;;;;-2.96;100.00;100785.00;5057762;28;20039;-87
2022/12/10 06:16:52;;;;;;;93.63;21.90;;;;;;;-2.94;100.00;100787.50;5056795;28;20197;-86
2022/12/10 06:19:25;;;;;;;98.15;22.17;;;;;;;-2.90;100.00;100789.78;5041320;28;20044;-86
2022/12/10 06:21:50;;;;;;;101.32;21.60;;;;;;;-2.87;100.00;100786.03;5057248;28;20116;-86
2022/12/10 06:24:21;;;;;;;93.57;22.10;;;;;;;-2.85;100.00;100784.06;5040787;28;20078;-87
2022/12/10 06:26:46;;;;;;;92.95;22.48;;;;;;;-2.82;100.00;100783.81;5057750;28;20039;-85
2022/12/10 06:29:30;;;;;;;100.97;20.93;;;;;;;-2.85;100.00;100787.59;5074992;28;20032;-87
2022/12/10 06:31:58;;;;;;;93.15;19.40;;;;;;;-2.86;100.00;100795.69;5058189;28;20047;-87
2022/12/10 06:34:31;;;;;;;99.35;21.48;;;;;;;-2.84;100.00;100785.78;5057513;28;20032;-87
2022/12/10 06:37:03;;;;;;;89.97;23.10;;;;;;;-2.84;100.00;100791.09;5057726;28;20036;-87
2022/12/10 06:39:28;;;;;;;89.47;21.53;;;;;;;-2.83;100.00;100790.13;5057725;28;20071;-85
2022/12/10 06:41:56;;;;;;;95.90;20.67;;;;;;;-2.85;100.00;100787.59;5056709;28;20084;-84
2022/12/10 06:44:24;;;;;;;88.67;22.03;;;;;;;-2.82;100.00;100791.78;5057919;28;20041;-83
2022/12/10 06:46:55;;;;;;;106.03;24.30;;;;;;;-2.87;100.00;100794.00;5057020;28;20126;-85
2022/12/10 06:49:20;;;;;;;101.90;22.85;;;;;;;-2.88;100.00;100787.84;5040713;28;20586;-85
2022/12/10 06:51:47;;;;;;;108.20;23.50;;;;;;;-2.86;100.00;100799.19;5056706;28;20123;-85
2022/12/10 06:54:14;;;;;;;118.95;24.85;;;;;;;-2.89;100.00;100806.56;5074286;28;20033;-85
2022/12/10 06:56:39;;;;;;;110.32;25.45;;;;;;;-2.94;100.00;100804.28;5056808;28;20033;-83
2022/12/10 06:59:08;;;;;;;99.50;24.80;;;;;;;-2.91;100.00;100814.66;5056479;28;20085;-84
2022/12/10 07:01:34;;;;;;;119.35;25.65;;;;;;;-2.91;100.00;100806.72;5056936;28;20052;-83
2022/12/10 07:04:02;;;;;;;105.20;23.73;;;;;;;-2.90;100.00;100815.50;5074869;28;20392;-85
2022/12/10 07:06:30;;;;;;;99.05;23.25;;;;;;;-2.88;100.00;100819.72;5056405;28;20060;-84
2022/12/10 07:08:56;;;;;;;99.88;26.00;;;;;;;-2.83;100.00;100819.31;5074301;28;20028;-83
2022/12/10 07:11:23;;;;;;;95.97;24.08;;;;;;;-2.80;100.00;100820.88;5056237;28;20036;-84
2022/12/10 07:13:51;;;;;;;96.60;22.60;;;;;;;-2.74;100.00;100823.03;5055989;28;20044;-84
2022/12/10 07:16:21;;;;;;;108.35;25.67;;;;;;;-2.63;100.00;100828.25;5056392;28;20308;-84
2022/12/10 07:18:50;;;;;;;105.93;24.40;;;;;;;-2.71;100.00;100820.94;5074345;28;20391;-83
2022/12/10 07:21:28;;;;;;;96.30;25.13;;;;;;;-2.70;100.00;100827.94;5056234;28;20048;-83
2022/12/10 07:24:00;;;;;;;97.68;25.05;;;;;;;-2.70;100.00;100830.59;5073921;28;20044;-84
2022/12/10 07:26:27;;;;;;;92.10;23.87;;;;;;;-2.68;100.00;100827.81;5056224;28;20029;-84
2022/12/10 07:28:53;;;;;;;104.15;25.13;;;;;;;-2.62;100.00;100832.59;5039599;28;20296;-84
2022/12/10 07:31:22;;;;;;;107.80;26.13;;;;;;;-2.61;100.00;100838.75;5056457;28;20476;-84
2022/12/10 07:36:46;;;;;;;95.97;24.70;;;;;;;-2.67;100.00;100834.81;5074352;28;20043;-84
2022/12/10 07:39:17;;;;;;;133.95;22.15;;;;;;;-2.73;100.00;100833.53;5055592;28;20032;-84
2022/12/10 07:41:44;;;;;;;94.83;22.50;;;;;;;-2.69;100.00;100842.06;5056630;28;20410;-84
2022/12/10 07:44:11;;;;;;;96.00;23.35;;;;;;;-2.73;100.00;100844.16;5038800;28;20143;-84
2022/12/10 07:46:38;;;;;;;90.80;22.80;;;;;;;-2.74;100.00;100847.75;5073876;28;20051;-84
2022/12/10 07:49:03;;;;;;;121.85;23.92;;;;;;;-2.71;100.00;100849.31;5055907;28;20031;-84
2022/12/10 07:51:29;;;;;;;101.30;22.50;;;;;;;-2.75;100.00;100850.56;5055834;28;20112;-84
2022/12/10 07:54:13;;;;;;;160.30;24.70;;;;;;;-2.76;100.00;100852.38;5055338;28;20048;-84
2022/12/10 07:56:39;;;;;;;110.68;23.58;;;;;;;-2.76;100.00;100848.84;5055891;28;20376;-84
2022/12/10 07:59:08;;;;;;;130.53;22.27;;;;;;;-2.72;100.00;100855.59;5055699;28;20029;-84
2022/12/10 08:01:33;;;;;;;110.85;21.98;;;;;;;-2.77;100.00;100842.72;5055432;28;20035;-83
2022/12/10 08:03:59;;;;;;;118.50;22.05;;;;;;;-2.76;100.00;100849.72;5055630;28;20402;-84
2022/12/10 08:06:27;;;;;;;125.07;23.15;;;;;;;-2.78;100.00;100851.63;5023455;28;20032;-84
2022/12/10 08:08:57;;;;;;;133.48;22.25;;;;;;;-2.78;100.00;100851.63;5055655;28;20036;-84
2022/12/10 08:11:23;;;;;;;112.15;24.10;;;;;;;-2.75;100.00;100861.16;5055547;28;20364;-83
2022/12/10 08:13:49;;;;;;;138.03;21.87;;;;;;;-2.76;100.00;100857.69;5055498;28;20025;-83
2022/12/10 08:16:18;;;;;;;121.30;23.65;;;;;;;-2.78;100.00;100856.13;5056354;28;20025;-83
2022/12/10 08:18:48;;;;;;;157.57;22.85;;;;;;;-2.78;100.00;100867.56;5073227;28;20111;-84
2022/12/10 08:21:28;;;;;;;93.85;21.85;;;;;;;-2.77;100.00;100863.13;5039461;28;20123;-83
2022/12/10 08:23:54;;;;;;;116.97;23.00;;;;;;;-2.74;100.00;100874.31;5056031;28;20404;-84
2022/12/10 08:26:26;;;;;;;187.18;24.15;;;;;;;-2.76;100.00;100870.97;5055091;28;20090;-84
2022/12/10 08:28:54;;;;;;;116.10;22.63;;;;;;;-2.76;100.00;100872.75;5056225;28;20033;-84
2022/12/10 08:31:22;;;;;;;107.45;23.80;;;;;;;-2.73;100.00;100881.34;5055578;28;20119;-84
2022/12/10 08:33:48;;;;;;;117.97;21.58;;;;;;;-2.65;100.00;100880.69;5073483;28;20496;-84
2022/12/10 08:36:21;;;;;;;92.53;21.23;;;;;;;-2.65;100.00;100886.00;5072992;28;20525;-84
2022/12/10 08:38:47;;;;;;;87.25;21.58;;;;;;;-2.60;100.00;100882.94;5057055;28;20503;-84
2022/12/10 08:41:13;;;;;;;98.95;20.60;;;;;;;-2.49;100.00;100893.53;5076954;28;20037;-84
2022/12/10 08:43:41;;;;;;;117.47;23.13;;;;;;;-2.52;100.00;100889.31;5058690;28;20060;-83
2022/12/10 08:46:10;;;;;;;147.20;22.48;;;;;;;-2.53;100.00;100892.09;5077185;28;20074;-83
2022/12/10 08:48:36;;;;;;;158.02;20.13;;;;;;;-2.49;100.00;100904.97;5042601;28;20059;-84
2022/12/10 08:51:03;;;;;;;166.98;21.77;;;;;;;-2.52;100.00;100905.25;5058724;28;20028;-83
2022/12/10 08:53:29;;;;;;;142.83;18.90;;;;;;;-2.52;100.00;100893.78;5059041;28;20028;-83
2022/12/10 08:55:55;;;;;;;93.90;18.02;;;;;;;-2.56;100.00;100901.16;5059050;28;20439;-83
2022/12/10 08:58:21;;;;;;;100.32;22.50;;;;;;;-2.55;100.00;100894.88;5058927;28;20476;-83
2022/12/10 09:00:48;;;;;;;106.63;21.47;;;;;;;-2.53;100.00;100897.41;5059166;28;20035;-83
2022/12/10 09:03:14;;;;;;;80.50;17.70;;;;;;;-2.50;100.00;100907.78;5077142;28;20115;-84
2022/12/10 09:05:42;;;;;;;92.53;21.57;;;;;;;-2.50;100.00;100899.78;5059029;28;20040;-83
2022/12/10 09:08:08;;;;;;;179.82;18.83;;;;;;;-2.53;100.00;100906.19;5076365;28;20036;-83
2022/12/10 09:10:36;;;;;;;123.55;21.25;;;;;;;-2.56;100.00;100908.28;5058398;28;20425;-84
2022/12/10 09:13:02;;;;;;;136.43;20.13;;;;;;;-2.52;100.00;100907.91;5058640;28;20032;-83
2022/12/10 09:15:27;;;;;;;108.50;18.83;;;;;;;-2.47;100.00;100915.47;5058283;28;20023;-83
2022/12/10 09:17:53;;;;;;;143.73;21.07;;;;;;;-2.46;100.00;100917.19;5041689;28;20029;-83
2022/12/10 09:20:18;;;;;;;168.18;21.50;;;;;;;-2.50;100.00;100903.28;5058412;28;20040;-83
2022/12/10 09:22:44;;;;;;;122.73;15.83;;;;;;;-2.44;100.00;100909.06;5058702;28;20127;-83
2022/12/10 09:25:09;;;;;;;126.73;20.00;;;;;;;-2.47;100.00;100919.00;5025795;28;20113;-82
2022/12/10 09:27:35;;;;;;;81.23;17.40;;;;;;;-2.49;100.00;100923.59;5025239;28;20044;-83
2022/12/10 09:30:01;;;;;;;102.70;18.15;;;;;;;-2.41;100.00;100922.94;5058224;28;20032;-83
2022/12/10 09:32:26;;;;;;;83.03;17.63;;;;;;;-2.40;100.00;100914.00;5076050;28;20033;-83
2022/12/10 09:34:52;;;;;;;104.60;19.25;;;;;;;-2.34;100.00;100925.94;5057985;28;20032;-83
2022/12/10 09:37:18;;;;;;;97.43;18.73;;;;;;;-2.31;100.00;100915.88;5058052;28;20059;-83
2022/12/10 09:39:43;;;;;;;126.65;20.50;;;;;;;-2.31;100.00;100929.16;5041621;28;20344;-83
2022/12/10 09:42:34;;;;;;;79.07;19.67;;;;;;;-2.30;100.00;100930.84;5057972;28;20024;-84
2022/12/10 09:45:17;;;;;;;87.22;21.48;;;;;;;-2.27;100.00;100940.38;5057760;28;20036;-84
2022/12/10 09:48:02;;;;;;;146.65;19.45;;;;;;;-2.25;100.00;100926.97;5076092;28;20028;-83
2022/12/10 09:50:59;;;;;;;95.50;18.10;;;;;;;-2.19;100.00;100942.41;5056979;28;20034;-85
2022/12/10 09:53:29;;;;;;;84.32;18.63;;;;;;;-2.26;100.00;100931.41;5076140;28;20024;-84
2022/12/10 09:55:57;;;;;;;82.75;17.42;;;;;;;-2.23;100.00;100938.31;5076093;28;20024;-84
2022/12/10 09:58:24;;;;;;;95.47;18.48;;;;;;;-2.21;100.00;100936.38;5057712;28;20041;-83
2022/12/10 10:01:00;;;;;;;78.90;17.95;;;;;;;-2.17;100.00;100937.78;5075544;28;20034;-83
2022/12/10 10:03:34;;;;;;;91.30;19.07;;;;;;;-2.09;100.00;100943.28;5057766;28;20480;-84
2022/12/10 10:06:03;;;;;;;99.13;18.88;;;;;;;-2.07;100.00;100940.50;5057832;28;20033;-83
2022/12/10 10:08:34;;;;;;;81.05;18.83;;;;;;;-2.01;100.00;100942.63;5075384;28;20059;-83
2022/12/10 10:11:05;;;;;;;79.93;17.67;;;;;;;-1.94;100.00;100949.94;5057225;28;20033;-84
2022/12/10 10:13:42;;;;;;;66.82;16.95;;;;;;;-1.91;100.00;100954.19;5057307;28;20036;-83
2022/12/10 10:16:23;;;;;;;79.27;18.17;;;;;;;-1.95;100.00;100964.25;5057795;28;20036;-84
2022/12/10 10:19:02;;;;;;;111.70;14.68;;;;;;;-2.00;100.00;100963.78;5075824;28;20039;-83
2022/12/10 10:21:49;;;;;;;78.45;18.55;;;;;;;-2.11;100.00;100958.56;5075749;28;20028;-83
2022/12/10 10:24:35;;;;;;;69.30;17.60;;;;;;;-2.07;100.00;100961.78;5075221;28;20032;-83
2022/12/10 10:27:26;;;;;;;67.45;17.38;;;;;;;-1.95;100.00;100963.38;5075116;28;20153;-84
2022/12/10 10:29:53;;;;;;;80.20;18.77;;;;;;;-1.99;100.00;100954.84;5057298;28;20029;-83
2022/12/10 10:32:38;;;;;;;103.80;18.60;;;;;;;-1.94;100.00;100963.25;5057088;28;20110;-83
2022/12/10 10:35:04;;;;;;;70.57;18.13;;;;;;;-1.95;100.00;100956.28;5057513;28;20051;-84
2022/12/10 10:37:44;;;;;;;65.82;16.70;;;;;;;-1.94;100.00;100951.78;5056723;28;20031;-83
2022/12/10 10:40:39;;;;;;;72.97;18.67;;;;;;;-2.02;100.00;100960.41;5057803;28;20479;-83
2022/12/10 10:43:05;;;;;;;83.60;18.60;;;;;;;-2.02;100.00;100960.41;5013164;28;20044;-83
2022/12/10 10:45:30;;;;;;;90.90;20.00;;;;;;;-1.95;100.00;100955.41;5040307;28;20112;-83
2022/12/10 10:48:09;;;;;;;77.23;17.77;;;;;;;-1.90;100.00;100952.38;5056972;28;20039;-83
2022/12/10 10:50:48;;;;;;;83.57;18.70;;;;;;;-1.80;100.00;100947.91;5056811;28;20112;-83
2022/12/10 10:53:30;;;;;;;75.30;18.93;;;;;;;-1.69;100.00;100947.84;5075452;28;20032;-83
2022/12/10 10:56:08;;;;;;;79.47;20.73;;;;;;;-1.65;100.00;100943.94;5074721;28;20278;-83
2022/12/10 10:58:34;;;;;;;80.20;19.27;;;;;;;-1.62;100.00;100935.69;5057079;28;20032;-83
2022/12/10 11:01:03;;;;;;;88.85;19.92;;;;;;;-1.66;100.00;100939.59;5056011;28;20036;-83
2022/12/10 11:03:35;;;;;;;76.82;17.20;;;;;;;-1.74;100.00;100939.44;5056103;28;20111;-83
2022/12/10 11:06:06;;;;;;;64.30;15.83;;;;;;;-1.74;100.00;100944.75;5074618;28;20086;-83
2022/12/10 11:08:37;;;;;;;70.97;18.13;;;;;;;-1.74;100.00;100936.78;5056561;28;20278;-84
2022/12/10 11:11:09;;;;;;;77.18;17.20;;;;;;;-1.79;100.00;100934.53;5057284;28;20028;-83
2022/12/10 11:13:44;;;;;;;80.50;16.55;;;;;;;-1.79;100.00;100931.84;5074521;28;20038;-83
2022/12/10 11:16:11;;;;;;;73.40;17.23;;;;;;;-1.73;100.00;100940.25;5074320;28;20040;-83
2022/12/10 11:18:41;;;;;;;80.90;16.10;;;;;;;-1.77;100.00;100934.38;5056911;28;20039;-83
2022/12/10 11:21:13;;;;;;;65.85;16.88;;;;;;;-1.67;100.00;100937.06;5056082;28;20332;-83
2022/12/10 11:23:46;;;;;;;70.57;16.83;;;;;;;-1.66;100.00;100928.94;5056585;28;20036;-83
2022/12/10 11:26:30;;;;;;;111.07;16.65;;;;;;;-1.60;100.00;100935.56;5056993;28;20119;-83
2022/12/10 11:29:03;;;;;;;79.20;16.15;;;;;;;-1.70;100.00;100932.84;5056354;28;20059;-83
2022/12/10 11:32:07;;;;;;;58.77;11.93;;;;;;;-1.80;100.00;100922.19;5073629;28;20116;-83